createdAt,value
2023-04-25T00:00:26.495Z,13.07
2023-04-25T00:03:15.223Z,13.05
2023-04-25T00:05:44.106Z,13.05
2023-04-25T00:08:12.339Z,13.04
2023-04-25T00:10:40.315Z,13.03
2023-04-25T00:13:09.405Z,13.03
2023-04-25T00:15:39.154Z,13.01
2023-04-25T00:18:07.587Z,13.00
2023-04-25T00:20:36.896Z,12.99
2023-04-25T00:23:04.765Z,12.98
2023-04-25T00:25:32.881Z,12.96
2023-04-25T00:28:00.820Z,12.96
2023-04-25T00:30:28.954Z,12.95
2023-04-25T00:32:57.206Z,12.94
2023-04-25T00:35:25.577Z,12.93
2023-04-25T00:37:53.438Z,12.92
2023-04-25T00:40:21.925Z,12.91
2023-04-25T00:42:50.508Z,12.91
2023-04-25T00:45:18.485Z,12.90
2023-04-25T00:47:46.836Z,12.89
2023-04-25T00:50:15.163Z,12.88
2023-04-25T00:52:44.867Z,12.87
2023-04-25T00:55:13.652Z,12.86
2023-04-25T00:57:41.842Z,12.86
2023-04-25T01:00:11.035Z,12.85
2023-04-25T01:02:39.171Z,12.85
2023-04-25T01:05:07.453Z,12.84
2023-04-25T01:07:36.069Z,12.83
2023-04-25T01:10:04.259Z,12.82
2023-04-25T01:12:32.065Z,12.81
2023-04-25T01:15:00.317Z,12.79
2023-04-25T01:17:29.134Z,12.77
2023-04-25T01:19:57.398Z,12.76
2023-04-25T01:22:25.343Z,12.75
2023-04-25T01:24:53.434Z,12.74
2023-04-25T01:27:22.953Z,12.73
2023-04-25T01:29:51.436Z,12.73
2023-04-25T01:32:19.914Z,12.72
2023-04-25T01:34:48.172Z,12.71
2023-04-25T01:37:17.512Z,12.70
2023-04-25T01:39:46.306Z,12.70
2023-04-25T01:42:14.277Z,12.69
2023-04-25T01:44:42.762Z,12.69
2023-04-25T01:47:10.730Z,12.68
2023-04-25T01:49:38.912Z,12.68
2023-04-25T01:52:07.392Z,12.66
2023-04-25T01:54:35.647Z,12.66
2023-04-25T01:57:04.360Z,12.66
2023-04-25T01:59:33.882Z,12.66
2023-04-25T02:02:08.629Z,12.66
2023-04-25T02:04:37.551Z,12.65
2023-04-25T02:07:05.888Z,12.65
2023-04-25T02:09:49.547Z,12.64
2023-04-25T02:12:18.928Z,12.63
2023-04-25T02:15:06.135Z,12.63
2023-04-25T02:17:56.560Z,12.62
2023-04-25T02:20:25.729Z,12.62
2023-04-25T02:22:53.910Z,12.62
2023-04-25T02:25:22.397Z,12.61
2023-04-25T02:27:51.589Z,12.60
2023-04-25T02:30:19.584Z,12.59
2023-04-25T02:32:47.802Z,12.59
2023-04-25T02:35:15.922Z,12.59
2023-04-25T02:37:44.101Z,12.58
2023-04-25T02:40:12.370Z,12.58
2023-04-25T02:42:40.378Z,12.58
2023-04-25T02:45:08.950Z,12.57
2023-04-25T02:47:36.983Z,12.56
2023-04-25T02:50:05.717Z,12.56
2023-04-25T02:52:33.689Z,12.55
2023-04-25T02:55:09.954Z,12.55
2023-04-25T02:57:38.542Z,12.55
2023-04-25T03:00:12.830Z,12.54
2023-04-25T03:02:41.528Z,12.53
2023-04-25T03:05:10.855Z,12.53
2023-04-25T03:07:40.620Z,12.53
2023-04-25T03:10:08.858Z,12.54
2023-04-25T03:12:37.750Z,12.56
2023-04-25T03:15:06.567Z,12.58
2023-04-25T03:17:35.050Z,12.60
2023-04-25T03:20:05.357Z,12.62
2023-04-25T03:22:33.836Z,12.64
2023-04-25T03:25:01.715Z,12.66
2023-04-25T03:27:29.587Z,12.68
2023-04-25T03:29:57.564Z,12.70
2023-04-25T03:32:26.283Z,12.73
2023-04-25T03:34:54.220Z,12.76
2023-04-25T03:37:22.910Z,12.79
2023-04-25T03:39:50.996Z,12.81
2023-04-25T03:42:19.574Z,12.82
2023-04-25T03:44:48.177Z,12.84
2023-04-25T03:47:16.455Z,12.86
2023-04-25T03:49:45.674Z,12.89
2023-04-25T03:52:13.724Z,12.90
2023-04-25T03:54:42.243Z,12.91
2023-04-25T03:57:13.163Z,12.92
2023-04-25T03:59:41.330Z,12.94
2023-04-25T04:02:11.325Z,12.94
2023-04-25T04:04:40.826Z,12.95
2023-04-25T04:07:10.588Z,12.96
2023-04-25T04:09:41.668Z,12.96
2023-04-25T04:12:14.632Z,12.98
2023-04-25T04:14:43.590Z,12.98
2023-04-25T04:17:11.636Z,13.00
2023-04-25T04:19:39.576Z,13.00
2023-04-25T04:22:12.048Z,13.01
2023-04-25T04:24:40.745Z,13.02
2023-04-25T04:27:09.734Z,13.03
2023-04-25T04:29:40.631Z,13.03
2023-04-25T04:32:18.565Z,13.04
2023-04-25T04:34:48.507Z,13.04
2023-04-25T04:37:17.589Z,13.04
2023-04-25T04:39:46.414Z,13.04
2023-04-25T04:42:25.320Z,13.04
2023-04-25T04:45:02.644Z,13.05
2023-04-25T04:48:03.274Z,13.05
2023-04-25T04:50:35.067Z,13.06
2023-04-25T04:53:21.537Z,13.06
2023-04-25T04:55:55.368Z,13.06
2023-04-25T04:58:41.876Z,13.06
2023-04-25T05:01:28.412Z,13.05
2023-04-25T05:04:16.787Z,13.06
2023-04-25T05:07:01.057Z,13.06
2023-04-25T05:09:51.857Z,13.07
2023-04-25T05:12:38.851Z,13.08
2023-04-25T05:15:38.269Z,13.09
2023-04-25T05:18:18.385Z,13.10
2023-04-25T05:20:49.029Z,13.11
2023-04-25T05:23:26.733Z,13.11
2023-04-25T05:26:15.007Z,13.12
2023-04-25T05:28:55.530Z,13.13
2023-04-25T05:31:53.471Z,13.14
2023-04-25T05:34:21.495Z,13.16
2023-04-25T05:36:57.001Z,13.17
2023-04-25T05:39:25.371Z,13.19
2023-04-25T05:42:09.731Z,13.21
2023-04-25T05:45:04.011Z,13.22
2023-04-25T05:47:52.694Z,13.24
2023-04-25T05:50:25.848Z,13.26
2023-04-25T05:53:17.053Z,13.29
2023-04-25T05:55:45.616Z,13.31
2023-04-25T05:58:29.950Z,13.33
2023-04-25T06:00:59.390Z,13.36
2023-04-25T06:03:28.180Z,13.37
2023-04-25T06:05:58.827Z,13.39
2023-04-25T06:08:27.709Z,13.41
2023-04-25T06:10:55.689Z,13.42
2023-04-25T06:13:24.440Z,13.45
2023-04-25T06:15:52.834Z,13.47
2023-04-25T06:18:21.149Z,13.49
2023-04-25T06:20:49.016Z,13.51
2023-04-25T06:23:18.510Z,13.53
2023-04-25T06:25:52.130Z,13.56
2023-04-25T06:28:20.414Z,13.58
2023-04-25T06:30:48.385Z,13.61
2023-04-25T06:33:19.036Z,13.63
2023-04-25T06:35:47.338Z,13.65
2023-04-25T06:38:17.641Z,13.67
2023-04-25T06:40:48.583Z,13.70
2023-04-25T06:43:16.933Z,13.72
2023-04-25T06:46:14.028Z,13.75
2023-04-25T06:48:45.639Z,13.78
2023-04-25T06:51:14.344Z,13.80
2023-04-25T06:53:42.722Z,13.82
2023-04-25T06:56:13.822Z,13.84
2023-04-25T06:59:14.289Z,13.85
2023-04-25T07:01:43.307Z,13.85
2023-04-25T07:04:22.931Z,13.86
2023-04-25T07:06:53.870Z,13.85
2023-04-25T07:09:25.833Z,13.84
2023-04-25T07:11:54.089Z,13.84
2023-04-25T07:14:22.294Z,13.83
2023-04-25T07:16:50.855Z,13.82
2023-04-25T07:19:19.083Z,13.81
2023-04-25T07:21:46.959Z,13.79
2023-04-25T07:24:14.810Z,13.77
2023-04-25T07:26:46.064Z,13.76
2023-04-25T07:29:38.517Z,13.75
2023-04-25T07:32:06.785Z,13.74
2023-04-25T07:34:38.303Z,13.73
2023-04-25T07:37:06.586Z,13.72
2023-04-25T07:39:40.602Z,13.71
2023-04-25T07:42:09.407Z,13.70
2023-04-25T07:44:39.922Z,13.69
2023-04-25T07:47:09.761Z,13.69
2023-04-25T07:49:38.229Z,13.68
2023-04-25T07:52:09.950Z,13.68
2023-04-25T07:54:38.286Z,13.68
2023-04-25T07:57:15.131Z,13.68
2023-04-25T07:59:43.856Z,13.68
2023-04-25T08:02:12.194Z,13.68
2023-04-25T08:04:41.038Z,13.68
2023-04-25T08:07:10.887Z,13.68
2023-04-25T08:09:52.536Z,13.69
2023-04-25T08:12:29.468Z,13.71
2023-04-25T08:14:57.801Z,13.73
2023-04-25T08:17:26.910Z,13.76
2023-04-25T08:19:54.875Z,13.80
2023-04-25T08:22:32.882Z,13.84
2023-04-25T08:25:21.693Z,13.87
2023-04-25T08:27:49.803Z,13.91
2023-04-25T08:30:18.156Z,13.94
2023-04-25T08:32:46.306Z,13.96
2023-04-25T08:35:27.426Z,13.98
2023-04-25T08:37:55.460Z,14.00
2023-04-25T08:40:27.224Z,14.02
2023-04-25T08:43:12.844Z,14.04
2023-04-25T08:45:42.350Z,14.06
2023-04-25T08:48:13.743Z,14.08
2023-04-25T08:50:45.987Z,14.10
2023-04-25T08:53:19.817Z,14.13
2023-04-25T08:55:49.961Z,14.16
2023-04-25T08:58:19.224Z,14.19
2023-04-25T09:00:48.200Z,14.22
2023-04-25T09:03:17.332Z,14.25
2023-04-25T09:05:49.305Z,14.29
2023-04-25T09:08:18.337Z,14.32
2023-04-25T09:10:47.919Z,14.35
2023-04-25T09:13:25.046Z,14.38
2023-04-25T09:16:22.830Z,14.44
2023-04-25T09:22:03.753Z,14.53
2023-04-25T09:24:36.548Z,14.56
2023-04-25T09:27:08.557Z,14.60
2023-04-25T09:29:38.533Z,14.63
2023-04-25T09:32:17.501Z,14.66
2023-04-25T09:34:51.269Z,14.69
2023-04-25T09:37:23.347Z,14.73
2023-04-25T09:40:31.414Z,14.77
2023-04-25T09:43:11.862Z,14.81
2023-04-25T09:45:46.870Z,14.84
2023-04-25T09:48:20.594Z,14.88
2023-04-25T09:51:09.483Z,14.91
2023-04-25T09:53:45.078Z,14.95
2023-04-25T09:56:37.552Z,14.98
2023-04-25T09:59:08.526Z,15.01
2023-04-25T10:01:41.356Z,15.04
2023-04-25T10:04:23.978Z,15.07
2023-04-25T10:07:15.308Z,15.11
2023-04-25T10:09:48.460Z,15.14
2023-04-25T10:12:17.521Z,15.16
2023-04-25T10:14:46.477Z,15.19
2023-04-25T10:17:15.231Z,15.21
2023-04-25T10:19:44.330Z,15.23
2023-04-25T10:22:32.159Z,15.25
2023-04-25T10:25:00.413Z,15.27
2023-04-25T10:27:29.061Z,15.28
2023-04-25T10:30:11.112Z,15.28
2023-04-25T10:32:39.775Z,15.30
2023-04-25T10:35:24.986Z,15.31
2023-04-25T10:37:59.661Z,15.32
2023-04-25T10:40:27.995Z,15.32
2023-04-25T10:42:57.177Z,15.31
2023-04-25T10:45:25.323Z,15.31
2023-04-25T10:47:54.033Z,15.30
2023-04-25T10:50:22.130Z,15.29
2023-04-25T10:52:50.082Z,15.28
2023-04-25T10:55:18.555Z,15.25
2023-04-25T10:57:48.574Z,15.19
2023-04-25T11:00:17.998Z,15.14
2023-04-25T11:02:46.981Z,15.09
2023-04-25T11:05:23.782Z,15.06
2023-04-25T11:08:03.990Z,15.04
2023-04-25T11:10:37.933Z,15.03
2023-04-25T11:13:06.224Z,15.03
2023-04-25T11:15:34.285Z,15.03
2023-04-25T11:18:03.077Z,15.03
2023-04-25T11:20:31.257Z,15.03
2023-04-25T11:25:37.797Z,15.01
2023-04-25T11:28:07.013Z,15.01
2023-04-25T11:30:34.988Z,15.01
2023-04-25T11:33:04.475Z,15.01
2023-04-25T11:35:32.617Z,15.01
2023-04-25T11:38:00.676Z,15.02
2023-04-25T11:40:28.754Z,15.02
2023-04-25T11:42:56.727Z,15.03
2023-04-25T11:45:24.909Z,15.04
2023-04-25T11:47:53.346Z,15.06
2023-04-25T11:50:21.355Z,15.05
2023-04-25T11:52:50.195Z,15.06
2023-04-25T11:55:19.695Z,15.05
2023-04-25T11:57:50.067Z,15.06
2023-04-25T12:00:22.403Z,15.05
2023-04-25T12:02:59.394Z,15.05
2023-04-25T12:05:32.689Z,15.05
2023-04-25T12:08:15.560Z,15.06
2023-04-25T12:10:44.578Z,15.06
2023-04-25T12:13:23.370Z,15.07
2023-04-25T12:15:52.024Z,15.08
2023-04-25T12:18:21.161Z,15.08
2023-04-25T12:20:49.246Z,15.09
2023-04-25T12:23:17.355Z,15.12
2023-04-25T12:25:46.944Z,15.14
2023-04-25T12:28:20.736Z,15.16
2023-04-25T12:30:59.114Z,15.20
2023-04-25T12:33:28.280Z,15.23
2023-04-25T12:35:57.125Z,15.24
2023-04-25T12:38:26.304Z,15.26
2023-04-25T12:40:54.565Z,15.29
2023-04-25T12:43:23.063Z,15.32
2023-04-25T12:45:54.345Z,15.34
2023-04-25T12:48:22.477Z,15.37
2023-04-25T12:50:51.720Z,15.41
2023-04-25T12:53:20.864Z,15.43
2023-04-25T12:55:49.498Z,15.47
2023-04-25T12:58:18.762Z,15.49
2023-04-25T13:00:47.253Z,15.51
2023-04-25T13:03:15.647Z,15.53
2023-04-25T13:05:44.427Z,15.56
2023-04-25T13:08:12.574Z,15.57
2023-04-25T13:10:41.372Z,15.58
2023-04-25T13:13:09.668Z,15.59
2023-04-25T13:15:37.627Z,15.58
2023-04-25T13:18:08.717Z,15.58
2023-04-25T13:20:36.751Z,15.56
2023-04-25T13:23:04.790Z,15.55
2023-04-25T13:25:33.429Z,15.54
2023-04-25T13:28:01.499Z,15.52
2023-04-25T13:30:29.564Z,15.49
2023-04-25T13:33:02.448Z,15.45
2023-04-25T13:35:31.413Z,15.40
2023-04-25T13:38:00.346Z,15.34
2023-04-25T13:40:28.586Z,15.27
2023-04-25T13:42:57.359Z,15.20
2023-04-25T13:45:25.531Z,15.16
2023-04-25T13:47:53.537Z,15.12
2023-04-25T13:50:21.558Z,15.08
2023-04-25T13:52:49.921Z,15.03
2023-04-25T13:55:18.638Z,14.99
2023-04-25T13:57:46.776Z,14.96
2023-04-25T14:00:15.098Z,14.93
2023-04-25T14:02:43.055Z,14.89
2023-04-25T14:05:11.191Z,14.86
2023-04-25T14:07:39.335Z,14.81
2023-04-25T14:10:07.997Z,14.77
2023-04-25T14:12:36.262Z,14.72
2023-04-25T14:15:04.352Z,14.67
2023-04-25T14:17:32.392Z,14.64
2023-04-25T14:20:00.684Z,14.61
2023-04-25T14:22:28.742Z,14.58
2023-04-25T14:24:57.037Z,14.55
2023-04-25T14:27:26.194Z,14.52
2023-04-25T14:29:56.025Z,14.49
2023-04-25T14:32:23.977Z,14.47
2023-04-25T14:34:51.940Z,14.45
2023-04-25T14:37:19.880Z,14.41
2023-04-25T14:39:47.835Z,14.38
2023-04-25T14:42:15.792Z,14.35
2023-04-25T14:44:43.796Z,14.31
2023-04-25T14:47:11.983Z,14.28
2023-04-25T14:49:39.878Z,14.25
2023-04-25T14:52:07.902Z,14.22
2023-04-25T14:54:36.413Z,14.20
2023-04-25T14:57:04.442Z,14.18
2023-04-25T14:59:32.456Z,14.16
2023-04-25T15:02:00.537Z,14.14
2023-04-25T15:04:28.759Z,14.12
2023-04-25T15:06:58.366Z,14.10
2023-04-25T15:09:26.342Z,14.08
2023-04-25T15:11:54.358Z,14.07
2023-04-25T15:14:22.422Z,14.05
2023-04-25T15:16:50.352Z,14.03
2023-04-25T15:19:18.349Z,14.00
2023-04-25T15:21:46.302Z,13.98
2023-04-25T15:24:16.197Z,13.97
2023-04-25T15:26:44.310Z,13.96
2023-04-25T15:29:12.887Z,13.93
2023-04-25T15:31:41.296Z,13.92
2023-04-25T15:34:10.091Z,13.90
2023-04-25T15:36:38.022Z,13.88
2023-04-25T15:39:06.608Z,13.87
2023-04-25T15:41:34.668Z,13.86
2023-04-25T15:44:03.376Z,13.84
2023-04-25T15:46:31.505Z,13.82
2023-04-25T15:48:59.661Z,13.81
2023-04-25T15:51:28.309Z,13.81
2023-04-25T15:53:57.496Z,13.79
2023-04-25T15:56:25.412Z,13.77
2023-04-25T15:58:55.309Z,13.77
2023-04-25T16:01:24.694Z,13.75
2023-04-25T16:03:53.590Z,13.74
2023-04-25T16:06:22.721Z,13.73
2023-04-25T16:08:51.210Z,13.72
2023-04-25T16:11:20.164Z,13.71
2023-04-25T16:13:49.037Z,13.70
2023-04-25T16:16:17.256Z,13.68
2023-04-25T16:18:45.889Z,13.66
2023-04-25T16:21:17.363Z,13.64
2023-04-25T16:23:45.574Z,13.63
2023-04-25T16:26:13.528Z,13.61
2023-04-25T16:28:41.491Z,13.58
2023-04-25T16:31:09.604Z,13.57
2023-04-25T16:33:37.596Z,13.54
2023-04-25T16:36:07.215Z,13.53
2023-04-25T16:38:36.159Z,13.52
2023-04-25T16:41:04.543Z,13.50
2023-04-25T16:43:32.752Z,13.48
2023-04-25T16:46:01.428Z,13.46
2023-04-25T16:48:29.468Z,13.44
2023-04-25T16:50:57.467Z,13.43
2023-04-25T16:53:25.893Z,13.41
2023-04-25T16:55:53.877Z,13.40
2023-04-25T16:58:22.009Z,13.38
2023-04-25T17:00:50.518Z,13.36
2023-04-25T17:03:18.734Z,13.33
2023-04-25T17:05:48.220Z,13.31
2023-04-25T17:08:17.285Z,13.29
2023-04-25T17:10:45.366Z,13.27
2023-04-25T17:13:14.148Z,13.26
2023-04-25T17:15:42.409Z,13.24
2023-04-25T17:18:11.152Z,13.22
2023-04-25T17:20:39.211Z,13.21
2023-04-25T17:23:07.281Z,13.21
2023-04-25T17:25:36.347Z,13.22
2023-04-25T17:28:05.825Z,13.24
2023-04-25T17:30:35.077Z,13.25
2023-04-25T17:33:04.084Z,13.27
2023-04-25T17:35:34.035Z,13.29
2023-04-25T17:38:02.521Z,13.31
2023-04-25T17:40:30.672Z,13.33
2023-04-25T17:42:58.735Z,13.35
2023-04-25T17:45:28.713Z,13.37
2023-04-25T17:47:56.805Z,13.39
2023-04-25T17:50:24.769Z,13.41
2023-04-25T17:52:54.397Z,13.43
2023-04-25T17:55:22.413Z,13.45
2023-04-25T17:57:51.394Z,13.47
2023-04-25T18:00:19.539Z,13.48
2023-04-25T18:02:52.898Z,13.50
2023-04-25T18:05:21.129Z,13.51
2023-04-25T18:07:49.012Z,13.52
2023-04-25T18:10:17.624Z,13.52
2023-04-25T18:12:45.689Z,13.52
2023-04-25T18:15:13.850Z,13.53
2023-04-25T18:17:41.969Z,13.54
2023-04-25T18:20:15.649Z,13.52
2023-04-25T18:22:45.008Z,13.51
2023-04-25T18:25:14.008Z,13.51
2023-04-25T18:27:42.653Z,13.50
2023-04-25T18:30:11.314Z,13.50
2023-04-25T18:32:39.978Z,13.50
2023-04-25T18:35:10.270Z,13.51
2023-04-25T18:37:40.354Z,13.51
2023-04-25T18:40:13.840Z,13.50
2023-04-25T18:42:43.974Z,13.50
2023-04-25T18:45:12.201Z,13.49
2023-04-25T18:47:40.993Z,13.49
2023-04-25T18:50:09.365Z,13.49
2023-04-25T18:52:37.401Z,13.48
2023-04-25T18:55:05.807Z,13.47
2023-04-25T18:57:34.579Z,13.46
2023-04-25T19:00:06.122Z,13.46
2023-04-25T19:02:38.179Z,13.45
2023-04-25T19:05:06.678Z,13.45
2023-04-25T19:07:34.636Z,13.43
2023-04-25T19:10:06.618Z,13.41
2023-04-25T19:12:34.901Z,13.40
2023-04-25T19:15:03.864Z,13.39
2023-04-25T19:17:31.923Z,13.38
2023-04-25T19:20:00.054Z,13.37
2023-04-25T19:22:28.451Z,13.37
2023-04-25T19:25:09.099Z,13.36
2023-04-25T19:27:38.771Z,13.35
2023-04-25T19:30:10.273Z,13.33
2023-04-25T19:32:38.769Z,13.30
2023-04-25T19:35:10.890Z,13.27
2023-04-25T19:37:45.922Z,13.24
2023-04-25T19:40:15.018Z,13.21
2023-04-25T19:42:43.397Z,13.18
2023-04-25T19:45:12.431Z,13.14
2023-04-25T19:47:41.955Z,13.10
2023-04-25T19:50:10.197Z,13.07
2023-04-25T19:52:38.790Z,13.04
2023-04-25T19:55:07.700Z,13.01
2023-04-25T19:57:37.834Z,12.96
2023-04-25T20:00:12.056Z,12.93
2023-04-25T20:02:40.928Z,12.89
2023-04-25T20:05:10.023Z,12.86
2023-04-25T20:07:39.471Z,12.82
2023-04-25T20:10:12.818Z,12.77
2023-04-25T20:12:41.667Z,12.71
2023-04-25T20:15:11.652Z,12.65
2023-04-25T20:17:42.216Z,12.61
2023-04-25T20:20:11.406Z,12.56
2023-04-25T20:22:40.828Z,12.53
2023-04-25T20:25:10.629Z,12.50
2023-04-25T20:27:38.841Z,12.47
2023-04-25T20:30:08.479Z,12.44
2023-04-25T20:32:37.257Z,12.42
2023-04-25T20:35:07.401Z,12.37
2023-04-25T20:37:36.178Z,12.33
2023-04-25T20:40:05.833Z,12.27
2023-04-25T20:42:34.870Z,12.20
2023-04-25T20:45:07.867Z,12.16
2023-04-25T20:47:36.042Z,12.11
2023-04-25T20:50:06.165Z,12.06
2023-04-25T20:52:35.568Z,12.01
2023-04-25T20:55:05.409Z,11.98
2023-04-25T20:57:33.464Z,11.96
2023-04-25T21:00:01.589Z,11.93
2023-04-25T21:02:30.174Z,11.89
2023-04-25T21:04:58.407Z,11.87
2023-04-25T21:07:26.914Z,11.83
2023-04-25T21:09:54.942Z,11.81
2023-04-25T21:12:23.180Z,11.79
2023-04-25T21:14:51.056Z,11.77
2023-04-25T21:17:19.736Z,11.76
2023-04-25T21:19:47.886Z,11.74
2023-04-25T21:22:16.072Z,11.73
2023-04-25T21:24:44.146Z,11.72
2023-04-25T21:27:12.219Z,11.71
2023-04-25T21:29:41.021Z,11.71
2023-04-25T21:32:09.187Z,11.70
2023-04-25T21:34:37.249Z,11.70
2023-04-25T21:37:05.120Z,11.68
2023-04-25T21:39:33.316Z,11.67
2023-04-25T21:42:02.019Z,11.66
2023-04-25T21:44:31.816Z,11.66
2023-04-25T21:46:59.828Z,11.65
2023-04-25T21:49:29.734Z,11.64
2023-04-25T21:51:57.886Z,11.63
2023-04-25T21:54:27.259Z,11.64
2023-04-25T21:56:55.520Z,11.63
2023-04-25T21:59:25.082Z,11.63
2023-04-25T22:01:53.576Z,11.64
2023-04-25T22:04:22.424Z,11.64
2023-04-25T22:06:51.347Z,11.64
2023-04-25T22:09:20.566Z,11.64
2023-04-25T22:11:51.739Z,11.64
2023-04-25T22:14:21.123Z,11.64
2023-04-25T22:16:54.624Z,11.64
2023-04-25T22:19:22.807Z,11.63
2023-04-25T22:21:50.785Z,11.63
2023-04-25T22:24:18.847Z,11.61
2023-04-25T22:26:47.237Z,11.60
2023-04-25T22:29:16.760Z,11.57
2023-04-25T22:31:45.561Z,11.55
2023-04-25T22:34:15.050Z,11.52
2023-04-25T22:36:43.682Z,11.48
2023-04-25T22:39:11.913Z,11.45
2023-04-25T22:41:40.706Z,11.43
2023-04-25T22:44:08.698Z,11.41
2023-04-25T22:46:37.656Z,11.39
2023-04-25T22:49:05.612Z,11.37
2023-04-25T22:51:33.724Z,11.35
2023-04-25T22:54:03.646Z,11.33
2023-04-25T22:56:33.361Z,11.31
2023-04-25T22:59:01.651Z,11.28
2023-04-25T23:01:29.683Z,11.27
2023-04-25T23:03:58.662Z,11.25
2023-04-25T23:06:27.096Z,11.24
2023-04-25T23:08:55.540Z,11.23
2023-04-25T23:11:24.591Z,11.21
2023-04-25T23:13:52.862Z,11.20
2023-04-25T23:16:21.480Z,11.18
2023-04-25T23:18:49.890Z,11.15
2023-04-25T23:21:18.600Z,11.14
2023-04-25T23:23:46.651Z,11.13
2023-04-25T23:26:15.442Z,11.11
2023-04-25T23:28:43.488Z,11.09
2023-04-25T23:31:12.395Z,11.07
2023-04-25T23:33:40.526Z,11.03
2023-04-25T23:36:08.652Z,11.01
2023-04-25T23:38:36.993Z,10.98
2023-04-25T23:41:05.416Z,10.95
2023-04-25T23:43:33.521Z,10.92
2023-04-25T23:46:01.711Z,10.89
2023-04-25T23:48:30.317Z,10.86
2023-04-25T23:51:00.754Z,10.84
2023-04-25T23:53:29.214Z,10.81
2023-04-25T23:55:57.222Z,10.78
2023-04-25T23:58:25.327Z,10.75
